Time,TemperatureF,DewpointF,PressureIn,WindDirection,WindDirectionDegrees,WindSpeedMPH,WindSpeedGustMPH,Humidity,HourlyPrecipIn,Conditions,Clouds,dailyrainin,SoftwareType,DateUTC
2013-09-20 00:00:00,52.0,43.0,-100.00,North,-999,-999.0,-999.0,72,0.00,,,-99.99,,2013-09-20 06:00:00,
2013-09-20 00:42:00,52.0,43.0,-100.00,North,-999,-999.0,-999.0,72,0.00,,,-99.99,,2013-09-20 06:42:00,
2013-09-20 00:52:00,52.0,43.0,-100.00,North,-999,-999.0,-999.0,72,0.00,,,-99.99,,2013-09-20 06:52:00,
2013-09-20 01:00:00,49.0,43.0,-100.00,North,-999,-999.0,-999.0,78,0.00,,,-99.99,,2013-09-20 07:00:00,
2013-09-20 01:42:00,49.0,43.0,-100.00,North,-999,-999.0,-999.0,78,0.00,,,-99.99,,2013-09-20 07:42:00,
2013-09-20 01:53:00,49.0,43.0,-100.00,North,-999,-999.0,-999.0,78,0.00,,,-99.99,,2013-09-20 07:53:00,
2013-09-20 02:00:00,49.0,42.0,-100.00,North,-999,-999.0,-999.0,76,0.00,,,-99.99,,2013-09-20 08:00:00,
2013-09-20 02:42:00,49.0,42.0,-100.00,North,-999,-999.0,-999.0,76,0.00,,,-99.99,,2013-09-20 08:42:00,
2013-09-20 02:52:00,49.0,42.0,-100.00,North,-999,-999.0,-999.0,76,0.00,,,-99.99,,2013-09-20 08:52:00,
2013-09-20 03:00:00,49.0,42.0,-100.00,North,-999,-999.0,-999.0,76,0.00,,,-99.99,,2013-09-20 09:00:00,
2013-09-20 03:44:00,49.0,42.0,-100.00,North,-999,-999.0,-999.0,76,0.00,,,-99.99,,2013-09-20 09:44:00,
2013-09-20 03:53:00,49.0,42.0,-100.00,North,-999,-999.0,-999.0,76,0.00,,,-99.99,,2013-09-20 09:53:00,
2013-09-20 04:00:00,48.0,43.0,-100.00,North,-999,-999.0,-999.0,82,0.00,,,-99.99,,2013-09-20 10:00:00,
2013-09-20 04:42:00,48.0,43.0,-100.00,North,-999,-999.0,-999.0,82,0.00,,,-99.99,,2013-09-20 10:42:00,
2013-09-20 04:53:00,48.0,43.0,-100.00,North,-999,-999.0,-999.0,82,0.00,,,-99.99,,2013-09-20 10:53:00,
2013-09-20 05:00:00,49.0,43.0,-100.00,North,-999,-999.0,-999.0,80,0.00,,,-99.99,,2013-09-20 11:00:00,
2013-09-20 05:42:00,49.0,43.0,-100.00,North,-999,-999.0,-999.0,80,0.00,,,-99.99,,2013-09-20 11:42:00,
2013-09-20 05:52:00,49.0,43.0,-100.00,North,-999,-999.0,-999.0,80,0.00,,,-99.99,,2013-09-20 11:52:00,
2013-09-20 06:00:00,46.0,42.0,-100.00,North,-999,-999.0,-999.0,84,0.00,,,-99.99,,2013-09-20 12:00:00,
2013-09-20 06:43:00,46.0,42.0,-100.00,North,-999,-999.0,-999.0,84,0.00,,,-99.99,,2013-09-20 12:43:00,
2013-09-20 06:52:00,46.0,42.0,-100.00,North,-999,-999.0,-999.0,84,0.00,,,-99.99,,2013-09-20 12:52:00,
2013-09-20 07:00:00,45.0,41.0,-100.00,North,-999,-999.0,-999.0,86,0.00,,,-99.99,,2013-09-20 13:00:00,
2013-09-20 07:42:00,45.0,41.0,-100.00,North,-999,-999.0,-999.0,86,0.00,,,-99.99,,2013-09-20 13:42:00,
2013-09-20 07:52:00,45.0,41.0,-100.00,North,-999,-999.0,-999.0,86,0.00,,,-99.99,,2013-09-20 13:52:00,
2013-09-20 08:00:00,53.0,43.0,-100.00,North,-999,-999.0,-999.0,70,0.00,,,-99.99,,2013-09-20 14:00:00,
2013-09-20 08:42:00,53.0,43.0,-100.00,North,-999,-999.0,-999.0,70,0.00,,,-99.99,,2013-09-20 14:42:00,
2013-09-20 08:52:00,53.0,43.0,-100.00,North,-999,-999.0,-999.0,70,0.00,,,-99.99,,2013-09-20 14:52:00,
2013-09-20 09:00:00,54.0,42.0,-100.00,North,-999,-999.0,-999.0,62,0.00,,,-99.99,,2013-09-20 15:00:00,
2013-09-20 09:44:00,54.0,42.0,-100.00,North,-999,-999.0,-999.0,62,0.00,,,-99.99,,2013-09-20 15:44:00,
2013-09-20 09:54:00,54.0,42.0,-100.00,North,-999,-999.0,-999.0,62,0.00,,,-99.99,,2013-09-20 15:54:00,
2013-09-20 10:00:00,58.0,44.0,-100.00,North,-999,-999.0,-999.0,59,0.00,,,-99.99,,2013-09-20 16:00:00,
2013-09-20 10:43:00,58.0,44.0,-100.00,North,-999,-999.0,-999.0,59,0.00,,,-99.99,,2013-09-20 16:43:00,
2013-09-20 10:53:00,58.0,44.0,-100.00,North,-999,-999.0,-999.0,59,0.00,,,-99.99,,2013-09-20 16:53:00,
2013-09-20 11:00:00,61.0,44.0,-100.00,North,-999,-999.0,-999.0,53,0.00,,,-99.99,,2013-09-20 17:00:00,
2013-09-20 11:43:00,61.0,44.0,-100.00,North,-999,-999.0,-999.0,53,0.00,,,-99.99,,2013-09-20 17:43:00,
2013-09-20 11:53:00,61.0,44.0,-100.00,North,-999,-999.0,-999.0,53,0.00,,,-99.99,,2013-09-20 17:53:00,
2013-09-20 12:00:00,63.0,44.0,-100.00,North,-999,-999.0,-999.0,49,0.00,,,-99.99,,2013-09-20 18:00:00,
2013-09-20 12:42:00,63.0,44.0,-100.00,North,-999,-999.0,-999.0,49,0.00,,,-99.99,,2013-09-20 18:42:00,
2013-09-20 12:52:00,63.0,44.0,-100.00,North,-999,-999.0,-999.0,49,0.00,,,-99.99,,2013-09-20 18:52:00,
2013-09-20 13:00:00,65.0,43.0,-100.00,North,-999,-999.0,-999.0,44,0.00,,,-99.99,,2013-09-20 19:00:00,
2013-09-20 13:42:00,65.0,43.0,-100.00,North,-999,-999.0,-999.0,44,0.00,,,-99.99,,2013-09-20 19:42:00,
2013-09-20 13:53:00,65.0,43.0,-100.00,North,-999,-999.0,-999.0,44,0.00,,,-99.99,,2013-09-20 19:53:00,
2013-09-20 14:00:00,67.0,43.0,-100.00,North,-999,-999.0,-999.0,42,0.00,,,-99.99,,2013-09-20 20:00:00,
2013-09-20 14:42:00,67.0,43.0,-100.00,North,-999,-999.0,-999.0,42,0.00,,,-99.99,,2013-09-20 20:42:00,
2013-09-20 14:52:00,67.0,43.0,-100.00,North,-999,-999.0,-999.0,42,0.00,,,-99.99,,2013-09-20 20:52:00,
2013-09-20 15:00:00,67.0,41.0,-100.00,North,-999,-999.0,-999.0,39,0.00,,,-99.99,,2013-09-20 21:00:00,
2013-09-20 15:45:00,67.0,41.0,-100.00,North,-999,-999.0,-999.0,39,0.00,,,-99.99,,2013-09-20 21:45:00,
2013-09-20 15:55:00,67.0,41.0,-100.00,North,-999,-999.0,-999.0,39,0.00,,,-99.99,,2013-09-20 21:55:00,
2013-09-20 16:00:00,69.0,43.0,-100.00,North,-999,-999.0,-999.0,38,0.00,,,-99.99,,2013-09-20 22:00:00,
2013-09-20 16:44:00,69.0,43.0,-100.00,North,-999,-999.0,-999.0,38,0.00,,,-99.99,,2013-09-20 22:44:00,
2013-09-20 16:53:00,69.0,43.0,-100.00,North,-999,-999.0,-999.0,38,0.00,,,-99.99,,2013-09-20 22:53:00,
2013-09-20 17:00:00,69.0,43.0,-100.00,North,-999,-999.0,-999.0,39,0.00,,,-99.99,,2013-09-20 23:00:00,
2013-09-20 17:42:00,69.0,43.0,-100.00,North,-999,-999.0,-999.0,39,0.00,,,-99.99,,2013-09-20 23:42:00,
2013-09-20 17:53:00,69.0,43.0,-100.00,North,-999,-999.0,-999.0,39,0.00,,,-99.99,,2013-09-20 23:53:00,
2013-09-20 18:00:00,69.0,46.0,-100.00,North,-999,-999.0,-999.0,44,0.00,,,-99.99,,2013-09-21 00:00:00,
2013-09-20 18:42:00,69.0,46.0,-100.00,North,-999,-999.0,-999.0,44,0.00,,,-99.99,,2013-09-21 00:42:00,
2013-09-20 18:52:00,69.0,46.0,-100.00,North,-999,-999.0,-999.0,44,0.00,,,-99.99,,2013-09-21 00:52:00,
2013-09-20 19:00:00,61.0,46.0,-100.00,North,-999,-999.0,-999.0,57,0.00,,,-99.99,,2013-09-21 01:00:00,
2013-09-20 19:42:00,61.0,46.0,-100.00,North,-999,-999.0,-999.0,57,0.00,,,-99.99,,2013-09-21 01:42:00,
2013-09-20 19:52:00,61.0,46.0,-100.00,North,-999,-999.0,-999.0,57,0.00,,,-99.99,,2013-09-21 01:52:00,
2013-09-20 20:00:00,58.0,45.0,-100.00,North,-999,-999.0,-999.0,60,0.00,,,-99.99,,2013-09-21 02:00:00,
2013-09-20 20:42:00,58.0,45.0,-100.00,North,-999,-999.0,-999.0,60,0.00,,,-99.99,,2013-09-21 02:42:00,
2013-09-20 20:52:00,58.0,45.0,-100.00,North,-999,-999.0,-999.0,60,0.00,,,-99.99,,2013-09-21 02:52:00,
2013-09-20 21:00:00,56.0,44.0,-100.00,North,-999,-999.0,-999.0,63,0.00,,,-99.99,,2013-09-21 03:00:00,
2013-09-20 21:44:00,56.0,44.0,-100.00,North,-999,-999.0,-999.0,63,0.00,,,-99.99,,2013-09-21 03:44:00,
2013-09-20 21:55:00,56.0,44.0,-100.00,North,-999,-999.0,-999.0,63,0.00,,,-99.99,,2013-09-21 03:55:00,
2013-09-20 22:00:00,56.0,43.0,-100.00,North,-999,-999.0,-999.0,63,0.00,,,-99.99,,2013-09-21 04:00:00,
2013-09-20 22:43:00,56.0,43.0,-100.00,North,-999,-999.0,-999.0,63,0.00,,,-99.99,,2013-09-21 04:43:00,
2013-09-20 22:54:00,56.0,43.0,-100.00,North,-999,-999.0,-999.0,63,0.00,,,-99.99,,2013-09-21 04:54:00,
2013-09-20 23:00:00,55.0,44.0,-100.00,North,-999,-999.0,-999.0,63,0.00,,,-99.99,,2013-09-21 05:00:00,
2013-09-20 23:44:00,55.0,44.0,-100.00,North,-999,-999.0,-999.0,63,0.00,,,-99.99,,2013-09-21 05:44:00,
2013-09-20 23:53:00,55.0,44.0,-100.00,North,-999,-999.0,-999.0,63,0.00,,,-99.99,,2013-09-21 05:53:00,